• Join FlightAware (Why Join?)
  • Login
  • US Flag 
03:46PM EDT


 

Airport Tracker/Info


-or-


 

Live Flight TrackerFlight Track Log ✈ CSN3231 ✈ 17-May-2012 ✈ ZGKL / KWL - ZGGG / CAN

Flight Track Log - Related Links

Times and Time Zones

All times are in EDT time to prevent confusion due to time zone crossing. See the CSN3231 flight status page for this flight to view local times or setup timezone preferences in your user account.

Time Position Orientation Groundspeed Altitude Reporting Facility
EDT Latitude Longitude Course Direction KTS MPH feet Rate Location/Type
07:21PM 24.5962 111.1743 121° Southeast  Level Estimated
07:22PM 24.5559 111.2469 121° Southeast  Level Estimated
07:23PM 24.5155 111.3196 121° Southeast  Level Estimated
07:24PM 24.4751 111.3922 121° Southeast  Level Estimated
07:25PM 24.4347 111.4647 121° Southeast  Level Estimated
07:26PM 24.3942 111.5372 122° Southeast  Level Estimated
07:27PM 24.3537 111.6097 122° Southeast  Level Estimated
07:28PM 24.3132 111.6821 122° Southeast  Level Estimated
07:29PM 24.2726 111.7544 122° Southeast  Level Estimated
07:30PM 24.2320 111.8268 122° Southeast  Level Estimated
07:31PM 24.1914 111.8990 122° Southeast  Level Estimated
07:32PM 24.1507 111.9712 122° Southeast  Level Estimated
07:33PM 24.1100 112.0434 122° Southeast  Level Estimated
07:34PM 24.0693 112.1155 122° Southeast  Level Estimated
07:35PM 24.0285 112.1876 122° Southeast  Level Estimated
07:36PM 23.9877 112.2597 122° Southeast  Level Estimated
07:37PM 23.9469 112.3316 122° Southeast  Level Estimated
07:38PM 23.9060 112.4036 122° Southeast  Level Estimated
07:39PM 23.8651 112.4755 122° Southeast  Level Estimated
07:40PM 23.8241 112.5473 122° Southeast  Level Estimated
07:41PM 23.7832 112.6191 122° Southeast  Level Estimated
07:42PM 23.7422 112.6909 122° Southeast  Level Estimated
07:43PM 23.7011 112.7626 122° Southeast  Level Estimated
07:44PM 23.6600 112.8343 122° Southeast  Level Estimated
07:45PM 23.6189 112.9059 122° Southeast  Level Estimated
07:46PM 23.5778 112.9775 122° Southeast  Level Estimated
07:47PM 23.5366 113.0490 122° Southeast  Level Estimated
07:48PM 23.4954 113.1205 122° Southeast  Level Estimated
07:49PM 23.4542 113.1920 122° Southeast  Level Estimated
07:50PM 23.4129 113.2634 122° Southeast  Level Estimated
07:51PM 23.3716 113.3347 302° West  Level Estimated
07:52PM 23.4129 113.2634 122° Southeast  Level Estimated
07:53PM 23.3716 113.3347 302° West  Level Estimated
07:54PM 23.4129 113.2634 122° Southeast  Level Estimated
07:55PM 23.3716 113.3347 302° West  Level Estimated
07:56PM 23.4129 113.2634 122° Southeast  Level Estimated
07:57PM 23.3716 113.3347 302° West  Level Estimated
07:58PM 23.4129 113.2634 122° Southeast  Level Estimated
07:59PM 23.3716 113.3347 302° West  Level Estimated
08:00PM 23.4129 113.2634 122° Southeast  Level Estimated
08:01PM 23.3716 113.3347 302° West  Level Estimated
08:02PM 23.4129 113.2634 122° Southeast  Level Estimated
08:03PM 23.3716 113.3347 302° West  Level Estimated
08:04PM 23.4129 113.2634 122° Southeast  Level Estimated
08:05PM 23.3716 113.3347 302° West  Level Estimated
08:06PM 23.4129 113.2634 302° West  Level Estimated